TimeEST,TemperatureF,Dew PointF,Humidity,Sea Level PressureIn,VisibilityMPH,Wind Direction,Wind SpeedMPH,Gust SpeedMPH,PrecipitationIn,Events,Conditions,WindDirDegrees,DateUTC
12:53 AM,16.0,10.9,81,30.54,10.0,South,3.5,-,N/A,,Clear,170,2013-11-25 05:53:00
1:53 AM,17.1,10.9,77,30.54,10.0,Calm,Calm,-,N/A,,Clear,0,2013-11-25 06:53:00
2:53 AM,16.0,10.9,81,30.53,10.0,Calm,Calm,-,N/A,,Clear,0,2013-11-25 07:53:00
3:53 AM,16.0,10.9,81,30.51,10.0,SE,3.5,-,N/A,,Clear,140,2013-11-25 08:53:00
4:53 AM,16.0,10.9,81,30.50,10.0,SE,4.6,-,N/A,,Clear,140,2013-11-25 09:53:00
5:53 AM,17.1,10.9,77,30.48,10.0,SE,4.6,-,N/A,,Clear,130,2013-11-25 10:53:00
6:53 AM,17.1,10.9,77,30.48,10.0,SE,4.6,-,N/A,,Clear,140,2013-11-25 11:53:00
7:53 AM,18.0,10.9,74,30.46,10.0,SE,5.8,-,N/A,,Clear,140,2013-11-25 12:53:00
8:53 AM,21.0,12.0,68,30.45,10.0,SSE,4.6,-,N/A,,Clear,150,2013-11-25 13:53:00
9:53 AM,26.1,12.0,55,30.43,10.0,SSE,8.1,-,N/A,,Clear,160,2013-11-25 14:53:00
10:53 AM,30.0,10.9,45,30.40,10.0,SSW,10.4,-,N/A,,Clear,200,2013-11-25 15:53:00
11:53 AM,32.0,9.0,38,30.37,10.0,SSW,10.4,-,N/A,,Clear,200,2013-11-25 16:53:00
12:53 PM,36.0,10.0,34,30.32,10.0,South,10.4,-,N/A,,Clear,190,2013-11-25 17:53:00
1:53 PM,35.1,12.0,39,30.29,10.0,South,10.4,-,N/A,,Scattered Clouds,190,2013-11-25 18:53:00
2:53 PM,36.0,14.0,41,30.27,10.0,SSW,10.4,-,N/A,,Overcast,200,2013-11-25 19:53:00
3:53 PM,36.0,15.1,43,30.29,10.0,SSW,5.8,-,N/A,,Overcast,200,2013-11-25 20:53:00
4:53 PM,36.0,15.1,43,30.28,10.0,South,6.9,-,N/A,,Overcast,170,2013-11-25 21:53:00
5:53 PM,36.0,16.0,44,30.27,10.0,South,5.8,-,N/A,,Overcast,170,2013-11-25 22:53:00
6:53 PM,36.0,16.0,44,30.26,10.0,South,3.5,-,N/A,,Clear,190,2013-11-25 23:53:00
7:53 PM,37.0,17.1,44,30.25,10.0,SSW,6.9,-,N/A,,Overcast,210,2013-11-26 00:53:00
8:53 PM,37.0,19.0,48,30.26,10.0,SW,6.9,-,N/A,,Overcast,220,2013-11-26 01:53:00
9:53 PM,37.0,19.9,50,30.25,10.0,SW,4.6,-,N/A,,Overcast,220,2013-11-26 02:53:00
10:53 PM,37.0,21.0,52,30.23,9.0,WSW,10.4,18.4,0.00,Snow,Light Snow,250,2013-11-26 03:53:00
11:22 PM,35.6,24.8,65,30.21,2.0,WSW,10.4,21.9,0.00,Snow,Light Snow,250,2013-11-26 04:22:00
11:30 PM,33.8,26.6,75,30.20,3.0,WSW,9.2,-,0.00,Snow,Light Snow,250,2013-11-26 04:30:00
11:46 PM,33.8,26.6,75,30.20,4.0,WSW,9.2,-,0.00,Snow,Light Snow,250,2013-11-26 04:46:00
11:53 PM,34.0,27.0,75,30.22,3.0,West,6.9,-,0.00,Snow,Light Snow,270,2013-11-26 04:53:00